createdAt,value
2023-01-01T00:01:18.011Z,136
2023-01-01T00:03:48.271Z,134
2023-01-01T00:06:18.496Z,139
2023-01-01T00:08:48.625Z,142
2023-01-01T00:11:18.742Z,156
2023-01-01T00:13:49.000Z,150
2023-01-01T00:16:19.335Z,138
2023-01-01T00:18:49.403Z,128
2023-01-01T00:21:19.691Z,120
2023-01-01T00:23:50.231Z,123
2023-01-01T00:26:20.366Z,132
2023-01-01T00:28:50.718Z,126
2023-01-01T00:31:20.775Z,133
2023-01-01T00:33:51.002Z,114
2023-01-01T00:36:21.259Z,128
2023-01-01T00:38:51.432Z,115
2023-01-01T00:41:21.595Z,122
2023-01-01T00:43:51.764Z,128
2023-01-01T00:46:22.114Z,126
2023-01-01T00:48:52.179Z,132
2023-01-01T00:51:22.366Z,132
2023-01-01T00:53:52.363Z,137
2023-01-01T00:56:22.563Z,135
2023-01-01T00:59:00.386Z,123
2023-01-01T01:01:22.914Z,118
2023-01-01T01:03:53.036Z,120
2023-01-01T01:06:22.347Z,132
2023-01-01T01:08:52.031Z,128
2023-01-01T01:11:21.747Z,132
2023-01-01T01:13:51.896Z,125
2023-01-01T01:16:22.057Z,115
2023-01-01T01:18:52.043Z,116
2023-01-01T01:21:22.210Z,118
2023-01-01T01:23:52.404Z,117
2023-01-01T01:26:22.606Z,128
2023-01-01T01:28:52.755Z,122
2023-01-01T01:31:22.916Z,114
2023-01-01T01:33:52.872Z,116
2023-01-01T01:36:22.977Z,102
2023-01-01T01:38:53.353Z,109
2023-01-01T01:41:28.150Z,98
2023-01-01T01:43:53.642Z,92
2023-01-01T01:46:23.936Z,78
2023-01-01T01:48:53.799Z,87
2023-01-01T01:51:23.797Z,79
2023-01-01T01:53:54.030Z,91
2023-01-01T01:56:24.112Z,92
2023-01-01T01:58:54.293Z,96
2023-01-01T02:01:24.685Z,96
2023-01-01T02:03:54.563Z,100
2023-01-01T02:06:24.729Z,102
2023-01-01T02:08:54.893Z,108
2023-01-01T02:11:25.108Z,110
2023-01-01T02:13:55.287Z,115
2023-01-01T02:16:25.390Z,117
2023-01-01T02:18:55.581Z,119
2023-01-01T02:21:25.717Z,108
2023-01-01T02:23:55.924Z,108
2023-01-01T02:26:26.061Z,112
2023-01-01T02:28:56.242Z,113
2023-01-01T02:31:26.548Z,112
2023-01-01T02:33:56.695Z,97
2023-01-01T02:36:26.872Z,102
2023-01-01T02:38:56.969Z,80
2023-01-01T02:41:27.175Z,94
2023-01-01T02:46:28.583Z,100
2023-01-01T02:48:58.483Z,90
2023-01-01T02:51:28.654Z,88
2023-01-01T02:53:58.511Z,72
2023-01-01T02:56:28.579Z,78
2023-01-01T02:58:58.574Z,76
2023-01-01T03:01:28.968Z,76
2023-01-01T03:03:58.963Z,85
2023-01-01T03:06:29.131Z,85
2023-01-01T03:08:59.343Z,95
2023-01-01T03:11:29.598Z,108
2023-01-01T03:13:59.797Z,76
2023-01-01T03:16:29.897Z,82
2023-01-01T03:19:00.132Z,90
2023-01-01T03:21:30.286Z,96
2023-01-01T03:24:00.615Z,102
2023-01-01T03:26:30.626Z,90
2023-01-01T03:29:00.665Z,101
2023-01-01T03:31:30.580Z,103
2023-01-01T03:34:00.553Z,118
2023-01-01T03:36:30.636Z,119
2023-01-01T03:39:00.799Z,117
2023-01-01T03:41:30.956Z,126
2023-01-01T03:44:01.065Z,116
2023-01-01T03:46:31.218Z,125
2023-01-01T03:49:04.025Z,111
2023-01-01T03:51:31.461Z,103
2023-01-01T03:54:01.624Z,110
2023-01-01T03:56:31.744Z,100
2023-01-01T03:59:02.000Z,102
2023-01-01T04:01:32.244Z,97
2023-01-01T04:04:02.348Z,88
2023-01-01T04:06:32.617Z,87
2023-01-01T04:09:02.795Z,64
2023-01-01T04:11:32.809Z,64
2023-01-01T04:14:02.834Z,64
2023-01-01T04:16:32.950Z,64
2023-01-01T04:19:02.949Z,60
2023-01-01T04:21:32.908Z,63
2023-01-01T04:24:03.144Z,64
2023-01-01T04:26:32.970Z,64
2023-01-01T04:29:03.165Z,64
2023-01-01T04:31:33.337Z,64
2023-01-01T04:34:03.311Z,60
2023-01-01T04:36:33.409Z,60
2023-01-01T04:39:03.444Z,64
2023-01-01T04:41:33.369Z,70
2023-01-01T04:44:03.283Z,64
2023-01-01T04:46:33.196Z,63
2023-01-01T04:49:03.245Z,61
2023-01-01T04:51:33.566Z,56
2023-01-01T04:54:03.590Z,56
2023-01-01T04:56:33.729Z,60
2023-01-01T04:59:03.578Z,60
2023-01-01T05:01:33.892Z,64
2023-01-01T05:04:03.971Z,61
2023-01-01T05:06:34.233Z,61
2023-01-01T05:09:04.436Z,60
2023-01-01T05:11:34.152Z,60
2023-01-01T05:14:04.302Z,62
2023-01-01T05:16:34.455Z,63
2023-01-01T05:19:04.626Z,64
2023-01-01T05:21:34.779Z,67
2023-01-01T05:24:04.866Z,64
2023-01-01T05:26:35.039Z,64
2023-01-01T05:29:07.848Z,60
2023-01-01T05:31:35.279Z,52
2023-01-01T05:36:35.782Z,56
2023-01-01T05:39:05.862Z,52
2023-01-01T05:41:35.804Z,53
2023-01-01T05:44:06.026Z,54
2023-01-01T05:46:35.843Z,52
2023-01-01T05:49:05.882Z,52
2023-01-01T05:54:06.376Z,54
2023-01-01T05:56:36.368Z,55
2023-01-01T05:59:06.370Z,48
2023-01-01T06:01:43.370Z,53
2023-01-01T06:04:06.448Z,50
2023-01-01T06:06:36.411Z,52
2023-01-01T06:09:06.282Z,53
2023-01-01T06:11:36.568Z,48
2023-01-01T06:14:06.718Z,52
2023-01-01T06:16:36.988Z,53
2023-01-01T06:19:06.906Z,55
2023-01-01T06:21:37.036Z,56
2023-01-01T06:24:07.109Z,52
2023-01-01T06:26:37.193Z,56
2023-01-01T06:29:07.330Z,52
2023-01-01T06:31:40.745Z,56
2023-01-01T06:34:07.525Z,56
2023-01-01T06:36:37.646Z,56
2023-01-01T06:39:07.612Z,52
2023-01-01T06:41:37.793Z,52
2023-01-01T06:44:07.984Z,54
2023-01-01T06:46:38.172Z,46
2023-01-01T06:49:08.203Z,56
2023-01-01T06:51:38.312Z,60
2023-01-01T06:54:08.479Z,61
2023-01-01T06:56:40.207Z,52
2023-01-01T07:01:39.916Z,56
2023-01-01T07:04:09.949Z,51
2023-01-01T07:06:40.192Z,44
2023-01-01T07:09:10.359Z,44
2023-01-01T07:11:40.511Z,44
2023-01-01T07:14:10.681Z,56
2023-01-01T07:16:43.743Z,59
2023-01-01T07:19:14.045Z,63
2023-01-01T07:21:44.245Z,60
2023-01-01T07:24:14.392Z,63
2023-01-01T07:26:44.572Z,60
2023-01-01T07:29:14.754Z,61
2023-01-01T07:31:45.023Z,56
2023-01-01T07:34:15.244Z,59
2023-01-01T07:36:45.336Z,50
2023-01-01T07:39:15.696Z,56
2023-01-01T07:41:45.872Z,54
2023-01-01T07:44:16.135Z,53
2023-01-01T07:46:46.325Z,56
2023-01-01T07:49:16.403Z,56
2023-01-01T07:51:46.521Z,52
2023-01-01T07:54:16.633Z,48
2023-01-01T07:56:46.764Z,46
2023-01-01T07:59:20.251Z,49
2023-01-01T08:01:47.273Z,52
2023-01-01T08:04:17.247Z,48
2023-01-01T08:06:47.433Z,52
2023-01-01T08:09:17.582Z,57
2023-01-01T08:11:47.965Z,55
2023-01-01T08:14:18.152Z,57
2023-01-01T08:16:48.455Z,56
2023-01-01T08:19:18.700Z,52
2023-01-01T08:21:48.822Z,57
2023-01-01T08:24:19.107Z,60
2023-01-01T08:26:49.333Z,54
2023-01-01T08:29:19.818Z,48
2023-01-01T08:31:49.994Z,48
2023-01-01T08:34:20.609Z,48
2023-01-01T08:36:50.836Z,52
2023-01-01T08:39:21.475Z,48
2023-01-01T08:41:51.492Z,53
2023-01-01T08:44:22.427Z,52
2023-01-01T08:46:52.483Z,60
2023-01-01T08:49:22.698Z,58
2023-01-01T08:51:52.754Z,62
2023-01-01T08:54:22.979Z,66
2023-01-01T08:56:53.083Z,64
2023-01-01T08:59:23.873Z,68
2023-01-01T09:01:54.186Z,108
2023-01-01T09:04:24.977Z,87
2023-01-01T09:06:55.187Z,87
2023-01-01T09:09:30.975Z,73
2023-01-01T09:11:55.656Z,76
2023-01-01T09:14:25.965Z,72
2023-01-01T09:16:56.110Z,87
2023-01-01T09:19:26.187Z,71
2023-01-01T09:21:56.297Z,79
2023-01-01T09:24:26.433Z,74
2023-01-01T09:26:56.571Z,70
2023-01-01T09:29:26.879Z,69
2023-01-01T09:31:57.663Z,64
2023-01-01T09:34:27.803Z,59
2023-01-01T09:36:58.088Z,61
2023-01-01T09:39:28.385Z,60
2023-01-01T09:41:59.202Z,56
2023-01-01T09:44:29.417Z,63
2023-01-01T09:47:00.222Z,56
2023-01-01T09:49:30.912Z,60
2023-01-01T09:52:01.087Z,64
2023-01-01T09:54:31.462Z,67
2023-01-01T09:57:01.287Z,66
2023-01-01T09:59:31.664Z,76
2023-01-01T10:02:01.847Z,64
2023-01-01T10:04:31.812Z,65
2023-01-01T10:07:01.877Z,53
2023-01-01T10:09:31.834Z,56
2023-01-01T10:12:01.828Z,60
2023-01-01T10:14:33.716Z,52
2023-01-01T10:17:03.820Z,48
2023-01-01T10:19:34.015Z,49
2023-01-01T10:22:04.938Z,44
2023-01-01T10:24:35.197Z,52
2023-01-01T10:27:05.521Z,44
2023-01-01T10:29:35.765Z,36
2023-01-01T10:32:06.105Z,40
2023-01-01T10:34:36.343Z,36
2023-01-01T10:37:07.158Z,40
2023-01-01T10:39:37.257Z,52
2023-01-01T10:42:08.231Z,45
2023-01-01T10:44:38.231Z,44
2023-01-01T10:47:08.551Z,44
2023-01-01T10:49:38.885Z,37
2023-01-01T10:52:09.147Z,40
2023-01-01T10:54:39.405Z,48
2023-01-01T10:57:10.161Z,28
2023-01-01T10:59:41.203Z,36
2023-01-01T11:02:11.492Z,36
2023-01-01T11:04:42.142Z,28
2023-01-01T11:07:13.120Z,38
2023-01-01T11:09:57.143Z,41
2023-01-01T11:12:30.917Z,36
2023-01-01T11:14:43.952Z,36
2023-01-01T11:17:14.897Z,32
2023-01-01T11:19:50.717Z,28
2023-01-01T11:22:15.744Z,32
2023-01-01T11:24:45.662Z,32
2023-01-01T11:27:15.775Z,32
2023-01-01T11:29:45.931Z,31
2023-01-01T11:32:16.413Z,32
2023-01-01T11:34:46.496Z,30
2023-01-01T11:37:16.814Z,26
2023-01-01T11:39:46.911Z,28
2023-01-01T11:42:17.208Z,31
2023-01-01T11:44:47.463Z,35
2023-01-01T11:47:18.350Z,32
2023-01-01T11:49:48.621Z,28
2023-01-01T11:52:18.808Z,31
2023-01-01T11:54:49.749Z,32
2023-01-01T11:57:19.955Z,31
2023-01-01T11:59:50.340Z,24
2023-01-01T12:02:20.606Z,24
2023-01-01T12:04:51.307Z,20
2023-01-01T12:07:22.114Z,48
2023-01-01T12:09:52.159Z,32
2023-01-01T12:12:22.203Z,32
2023-01-01T12:14:52.176Z,23
2023-01-01T12:17:22.353Z,20
2023-01-01T12:19:52.653Z,22
2023-01-01T12:22:22.925Z,21
2023-01-01T12:24:53.222Z,16
2023-01-01T12:27:23.538Z,23
2023-01-01T12:29:54.513Z,16
2023-01-01T12:32:24.505Z,28
2023-01-01T12:34:54.734Z,21
2023-01-01T12:37:24.568Z,18
2023-01-01T12:39:54.862Z,16
2023-01-01T12:42:25.264Z,20
2023-01-01T12:44:55.536Z,16
2023-01-01T12:47:25.742Z,20
2023-01-01T12:49:55.620Z,19
2023-01-01T12:52:25.794Z,20
2023-01-01T12:54:55.973Z,20
2023-01-01T12:57:26.049Z,20
2023-01-01T12:59:56.361Z,20
2023-01-01T13:02:30.133Z,22
2023-01-01T13:04:59.660Z,20
2023-01-01T13:07:29.888Z,24
2023-01-01T13:10:06.449Z,24
2023-01-01T13:12:37.401Z,28
2023-01-01T13:15:07.029Z,29
2023-01-01T13:17:38.038Z,28
2023-01-01T13:20:08.106Z,24
2023-01-01T13:22:38.336Z,28
2023-01-01T13:25:08.643Z,24
2023-01-01T13:27:39.384Z,25
2023-01-01T13:30:09.653Z,28
2023-01-01T13:32:39.913Z,28
2023-01-01T13:35:10.950Z,27
2023-01-01T13:37:41.169Z,28
2023-01-01T13:40:11.376Z,32
2023-01-01T13:42:41.587Z,28
2023-01-01T13:45:11.866Z,24
2023-01-01T13:47:42.689Z,28
2023-01-01T13:50:12.918Z,32
2023-01-01T13:52:43.811Z,31
2023-01-01T13:55:13.991Z,31
2023-01-01T13:57:47.870Z,28
2023-01-01T14:00:18.820Z,32
2023-01-01T14:02:49.468Z,28
2023-01-01T14:05:19.531Z,30
2023-01-01T14:07:51.879Z,32
2023-01-01T14:10:21.128Z,36
2023-01-01T14:12:51.294Z,36
2023-01-01T14:15:22.169Z,39
2023-01-01T14:17:52.533Z,32
2023-01-01T14:20:22.552Z,36
2023-01-01T14:22:52.593Z,32
2023-01-01T14:25:22.942Z,32
2023-01-01T14:27:53.215Z,32
2023-01-01T14:30:23.397Z,36
2023-01-01T14:32:53.660Z,36
2023-01-01T14:35:23.802Z,36
2023-01-01T14:37:54.116Z,36
2023-01-01T14:40:25.727Z,32
2023-01-01T14:42:55.898Z,32
2023-01-01T14:45:26.228Z,39
2023-01-01T14:48:00.171Z,35
2023-01-01T14:50:30.293Z,40
2023-01-01T14:53:00.771Z,44
2023-01-01T14:55:31.387Z,48
2023-01-01T14:58:01.667Z,44
2023-01-01T15:00:32.596Z,47
2023-01-01T15:03:02.760Z,50
2023-01-01T15:05:35.305Z,48
2023-01-01T15:08:03.180Z,99
2023-01-01T15:10:33.137Z,59
2023-01-01T15:13:03.370Z,44
2023-01-01T15:15:34.277Z,41
2023-01-01T15:18:04.561Z,36
2023-01-01T15:20:34.374Z,39
2023-01-01T15:23:09.928Z,40
2023-01-01T15:25:34.914Z,40
2023-01-01T15:28:05.398Z,41
2023-01-01T15:30:35.546Z,40
2023-01-01T15:33:05.424Z,40
2023-01-01T15:35:35.701Z,44
2023-01-01T15:38:06.644Z,40
2023-01-01T15:40:37.568Z,41
2023-01-01T15:43:07.747Z,39
2023-01-01T15:45:38.582Z,44
2023-01-01T15:48:08.754Z,44
2023-01-01T15:50:38.851Z,49
2023-01-01T15:53:08.922Z,50
2023-01-01T15:55:39.697Z,49
2023-01-01T15:58:09.623Z,52
2023-01-01T16:00:39.942Z,56
2023-01-01T16:03:10.241Z,69
2023-01-01T16:05:40.274Z,60
2023-01-01T16:08:11.057Z,57
2023-01-01T16:10:41.196Z,52
2023-01-01T16:13:12.200Z,48
2023-01-01T16:15:46.273Z,44
2023-01-01T16:18:12.658Z,47
2023-01-01T16:20:42.843Z,48
2023-01-01T16:23:13.166Z,51
2023-01-01T16:25:43.229Z,55
2023-01-01T16:28:14.119Z,74
2023-01-01T16:30:44.291Z,64
2023-01-01T16:33:14.444Z,60
2023-01-01T16:35:45.057Z,66
2023-01-01T16:38:15.163Z,87
2023-01-01T16:40:45.156Z,84
2023-01-01T16:43:15.368Z,85
2023-01-01T16:45:45.763Z,105
2023-01-01T16:48:16.004Z,102
2023-01-01T16:50:46.159Z,90
2023-01-01T16:53:16.976Z,84
2023-01-01T16:55:47.237Z,74
2023-01-01T17:00:48.309Z,70
2023-01-01T17:03:18.148Z,69
2023-01-01T17:05:48.955Z,69
2023-01-01T17:08:19.165Z,56
2023-01-01T17:10:53.483Z,74
2023-01-01T17:13:20.255Z,79
2023-01-01T17:15:50.407Z,103
2023-01-01T17:18:23.944Z,88
2023-01-01T17:20:50.501Z,84
2023-01-01T17:23:21.360Z,96
2023-01-01T17:25:51.557Z,95
2023-01-01T17:28:21.752Z,103
2023-01-01T17:30:52.002Z,88
2023-01-01T17:33:22.108Z,72
2023-01-01T17:35:52.378Z,112
2023-01-01T17:38:22.551Z,71
2023-01-01T17:40:53.310Z,76
2023-01-01T17:43:23.382Z,82
2023-01-01T17:45:53.677Z,84
2023-01-01T17:48:24.092Z,78
2023-01-01T17:50:54.181Z,68
2023-01-01T17:53:24.333Z,68
2023-01-01T17:55:58.099Z,80
2023-01-01T17:58:32.142Z,89
2023-01-01T18:00:58.005Z,72
2023-01-01T18:03:27.912Z,78
2023-01-01T18:05:58.887Z,81
2023-01-01T18:08:28.904Z,79
2023-01-01T18:10:59.120Z,64
2023-01-01T18:13:29.929Z,62
2023-01-01T18:15:59.912Z,58
2023-01-01T18:18:29.903Z,59
2023-01-01T18:20:59.796Z,63
2023-01-01T18:23:29.756Z,64
2023-01-01T18:25:59.689Z,69
2023-01-01T18:28:29.571Z,65
2023-01-01T18:31:00.208Z,71
2023-01-01T18:33:30.234Z,65
2023-01-01T18:36:00.451Z,56
2023-01-01T18:38:31.144Z,66
2023-01-01T18:41:01.251Z,60
2023-01-01T18:43:31.800Z,64
2023-01-01T18:46:02.153Z,73
2023-01-01T18:48:32.223Z,87
2023-01-01T18:51:03.090Z,102
2023-01-01T18:53:33.073Z,106
2023-01-01T18:56:03.997Z,131
2023-01-01T18:58:34.086Z,124
2023-01-01T19:01:04.072Z,124
2023-01-01T19:03:39.227Z,122
2023-01-01T19:06:05.273Z,126
2023-01-01T19:08:35.469Z,119
2023-01-01T19:11:05.593Z,122
2023-01-01T19:13:36.555Z,133
2023-01-01T19:16:07.329Z,160
2023-01-01T19:18:37.289Z,176
2023-01-01T19:21:09.926Z,165
2023-01-01T19:23:39.794Z,165
2023-01-01T19:26:10.125Z,172
2023-01-01T19:28:41.785Z,160
2023-01-01T19:31:11.999Z,169
2023-01-01T19:33:45.928Z,172
2023-01-01T19:36:12.883Z,172
2023-01-01T19:38:43.012Z,158
2023-01-01T19:41:13.176Z,165
2023-01-01T19:43:43.379Z,164
2023-01-01T19:46:13.517Z,162
2023-01-01T19:48:43.582Z,143
2023-01-01T19:51:13.764Z,147
2023-01-01T19:53:43.819Z,148
2023-01-01T19:56:14.081Z,167
2023-01-01T19:58:44.326Z,164
2023-01-01T20:01:14.469Z,172
2023-01-01T20:04:00.062Z,176
2023-01-01T20:06:15.448Z,189
2023-01-01T20:08:45.608Z,179
2023-01-01T20:11:15.798Z,172
2023-01-01T20:13:45.962Z,165
2023-01-01T20:16:16.173Z,139
2023-01-01T20:18:46.986Z,130
2023-01-01T20:21:20.497Z,120
2023-01-01T20:23:47.054Z,128
2023-01-01T20:26:17.147Z,128
2023-01-01T20:28:47.329Z,136
2023-01-01T20:31:17.457Z,154
2023-01-01T20:33:47.631Z,144
2023-01-01T20:36:17.776Z,144
2023-01-01T20:38:48.472Z,148
2023-01-01T20:41:19.281Z,148
2023-01-01T20:43:49.416Z,150
2023-01-01T20:46:19.168Z,124
2023-01-01T20:48:49.175Z,116
2023-01-01T20:51:19.909Z,106
2023-01-01T20:53:50.103Z,107
2023-01-01T20:56:20.923Z,116
2023-01-01T20:58:54.610Z,122
2023-01-01T21:01:21.569Z,135
2023-01-01T21:03:51.640Z,144
2023-01-01T21:06:24.401Z,124
2023-01-01T21:08:51.893Z,122
2023-01-01T21:11:21.857Z,129
2023-01-01T21:13:52.737Z,123
2023-01-01T21:16:22.620Z,122
2023-01-01T21:18:52.793Z,129
2023-01-01T21:21:22.796Z,135
2023-01-01T21:23:56.868Z,133
2023-01-01T21:26:26.845Z,140
2023-01-01T21:28:57.637Z,140
2023-01-01T21:31:27.693Z,155
2023-01-01T21:33:58.393Z,144
2023-01-01T21:36:28.094Z,153
2023-01-01T21:38:58.977Z,147
2023-01-01T21:41:30.233Z,137
2023-01-01T21:44:01.041Z,132
2023-01-01T21:46:31.160Z,124
2023-01-01T21:49:01.188Z,124
2023-01-01T21:51:31.456Z,112
2023-01-01T21:54:02.237Z,132
2023-01-01T21:56:32.807Z,140
2023-01-01T21:59:02.760Z,131
2023-01-01T22:01:33.773Z,126
2023-01-01T22:04:03.934Z,120
2023-01-01T22:06:34.779Z,115
2023-01-01T22:09:04.959Z,107
2023-01-01T22:11:35.168Z,107
2023-01-01T22:14:06.035Z,98
2023-01-01T22:16:35.970Z,93
2023-01-01T22:19:05.950Z,100
2023-01-01T22:21:36.188Z,100
2023-01-01T22:24:06.921Z,112
2023-01-01T22:26:37.095Z,116
2023-01-01T22:29:07.221Z,116
2023-01-01T22:31:37.247Z,96
2023-01-01T22:34:07.501Z,105
2023-01-01T22:36:37.721Z,116
2023-01-01T22:39:07.671Z,119
2023-01-01T22:41:38.536Z,124
2023-01-01T22:44:08.700Z,128
2023-01-01T22:46:39.158Z,123
2023-01-01T22:49:09.131Z,126
2023-01-01T22:51:39.330Z,125
2023-01-01T22:54:09.403Z,136
2023-01-01T22:56:40.203Z,131
2023-01-01T22:59:10.120Z,127
2023-01-01T23:01:41.016Z,126
2023-01-01T23:04:11.032Z,129
2023-01-01T23:06:40.107Z,133
2023-01-01T23:09:10.008Z,138
2023-01-01T23:11:39.494Z,135
2023-01-01T23:14:09.544Z,132
2023-01-01T23:16:40.418Z,124
2023-01-01T23:19:11.264Z,130
2023-01-01T23:21:41.365Z,132
2023-01-01T23:24:11.641Z,126
2023-01-01T23:26:41.937Z,119
2023-01-01T23:29:11.981Z,125
2023-01-01T23:31:42.180Z,130
2023-01-01T23:34:12.339Z,125
2023-01-01T23:36:42.485Z,115
2023-01-01T23:39:12.507Z,125
2023-01-01T23:41:42.743Z,106
2023-01-01T23:44:12.861Z,119
2023-01-01T23:46:42.898Z,120
2023-01-01T23:49:13.009Z,116
2023-01-01T23:51:43.714Z,117
2023-01-01T23:54:13.966Z,110
2023-01-01T23:56:44.099Z,104
2023-01-01T23:59:14.209Z,113
